sensor_id;sensor_type;location;lat;lon;timestamp;temperature;humidity
18103;DHT22;9178;51.120;6.192;2022-08-21T00:02:14;14.60;99.90
18103;DHT22;9178;51.120;6.192;2022-08-21T00:04:42;14.50;99.90
18103;DHT22;9178;51.120;6.192;2022-08-21T00:07:09;14.50;99.90
18103;DHT22;9178;51.120;6.192;2022-08-21T00:09:36;14.50;99.90
18103;DHT22;9178;51.120;6.192;2022-08-21T00:12:04;14.50;99.90
18103;DHT22;9178;51.120;6.192;2022-08-21T00:14:48;14.50;99.90
18103;DHT22;9178;51.120;6.192;2022-08-21T00:17:15;14.50;99.90
18103;DHT22;9178;51.120;6.192;2022-08-21T00:19:45;14.50;99.90
18103;DHT22;9178;51.120;6.192;2022-08-21T00:22:12;14.40;99.90
18103;DHT22;9178;51.120;6.192;2022-08-21T00:24:42;14.40;99.90
18103;DHT22;9178;51.120;6.192;2022-08-21T00:27:09;14.40;99.90
18103;DHT22;9178;51.120;6.192;2022-08-21T00:29:35;14.40;99.90
18103;DHT22;9178;51.120;6.192;2022-08-21T00:32:04;14.40;99.90
18103;DHT22;9178;51.120;6.192;2022-08-21T00:34:32;14.30;99.90
18103;DHT22;9178;51.120;6.192;2022-08-21T00:36:59;14.30;99.90
18103;DHT22;9178;51.120;6.192;2022-08-21T00:39:26;14.30;99.90
18103;DHT22;9178;51.120;6.192;2022-08-21T00:41:56;14.30;99.90
18103;DHT22;9178;51.120;6.192;2022-08-21T00:44:23;14.30;99.90
18103;DHT22;9178;51.120;6.192;2022-08-21T00:46:49;14.20;99.90
18103;DHT22;9178;51.120;6.192;2022-08-21T00:49:26;14.20;99.90
18103;DHT22;9178;51.120;6.192;2022-08-21T00:52:06;14.20;99.90
18103;DHT22;9178;51.120;6.192;2022-08-21T00:54:36;14.10;99.90
18103;DHT22;9178;51.120;6.192;2022-08-21T00:57:09;14.10;99.90
18103;DHT22;9178;51.120;6.192;2022-08-21T00:59:40;14.10;99.90
18103;DHT22;9178;51.120;6.192;2022-08-21T01:02:23;14.10;99.90
18103;DHT22;9178;51.120;6.192;2022-08-21T01:04:54;14.10;99.90
18103;DHT22;9178;51.120;6.192;2022-08-21T01:07:21;14.10;99.90
18103;DHT22;9178;51.120;6.192;2022-08-21T01:09:49;14.10;99.90
18103;DHT22;9178;51.120;6.192;2022-08-21T01:12:17;14.10;99.90
18103;DHT22;9178;51.120;6.192;2022-08-21T01:14:44;14.10;99.90
18103;DHT22;9178;51.120;6.192;2022-08-21T01:17:13;14.00;99.90
18103;DHT22;9178;51.120;6.192;2022-08-21T01:19:41;14.00;99.90
18103;DHT22;9178;51.120;6.192;2022-08-21T01:22:09;14.00;99.90
18103;DHT22;9178;51.120;6.192;2022-08-21T01:24:36;14.00;99.90
18103;DHT22;9178;51.120;6.192;2022-08-21T01:27:03;13.90;99.90
18103;DHT22;9178;51.120;6.192;2022-08-21T01:29:36;13.90;99.90
18103;DHT22;9178;51.120;6.192;2022-08-21T01:32:08;13.90;99.90
18103;DHT22;9178;51.120;6.192;2022-08-21T01:34:41;13.90;99.90
18103;DHT22;9178;51.120;6.192;2022-08-21T01:37:11;13.90;99.90
18103;DHT22;9178;51.120;6.192;2022-08-21T01:39:40;13.80;99.90
18103;DHT22;9178;51.120;6.192;2022-08-21T01:42:08;13.80;99.90
18103;DHT22;9178;51.120;6.192;2022-08-21T01:44:35;13.80;99.90
18103;DHT22;9178;51.120;6.192;2022-08-21T01:47:08;13.80;99.90
18103;DHT22;9178;51.120;6.192;2022-08-21T01:49:36;13.70;99.90
18103;DHT22;9178;51.120;6.192;2022-08-21T01:52:03;13.70;99.90
18103;DHT22;9178;51.120;6.192;2022-08-21T01:54:32;13.70;99.90
18103;DHT22;9178;51.120;6.192;2022-08-21T01:56:59;13.70;99.90
18103;DHT22;9178;51.120;6.192;2022-08-21T01:59:27;13.70;99.90
18103;DHT22;9178;51.120;6.192;2022-08-21T02:01:54;13.70;99.90
18103;DHT22;9178;51.120;6.192;2022-08-21T02:04:21;13.70;99.90
18103;DHT22;9178;51.120;6.192;2022-08-21T02:06:49;13.70;99.90
18103;DHT22;9178;51.120;6.192;2022-08-21T02:09:16;13.70;99.90
18103;DHT22;9178;51.120;6.192;2022-08-21T02:11:45;13.70;99.90
18103;DHT22;9178;51.120;6.192;2022-08-21T02:14:13;13.70;99.90
18103;DHT22;9178;51.120;6.192;2022-08-21T02:16:41;13.60;99.90
18103;DHT22;9178;51.120;6.192;2022-08-21T02:19:09;13.60;99.90
18103;DHT22;9178;51.120;6.192;2022-08-21T02:21:36;13.50;99.90
18103;DHT22;9178;51.120;6.192;2022-08-21T02:24:04;13.60;99.90
18103;DHT22;9178;51.120;6.192;2022-08-21T02:26:31;13.50;99.90
18103;DHT22;9178;51.120;6.192;2022-08-21T02:29:00;13.60;99.90
18103;DHT22;9178;51.120;6.192;2022-08-21T02:31:27;13.50;99.90
18103;DHT22;9178;51.120;6.192;2022-08-21T02:33:54;13.50;99.90
18103;DHT22;9178;51.120;6.192;2022-08-21T02:36:21;13.50;99.90
18103;DHT22;9178;51.120;6.192;2022-08-21T02:38:51;13.50;99.90
18103;DHT22;9178;51.120;6.192;2022-08-21T02:41:19;13.50;99.90
18103;DHT22;9178;51.120;6.192;2022-08-21T02:43:46;13.50;99.90
18103;DHT22;9178;51.120;6.192;2022-08-21T02:46:17;13.50;99.90
18103;DHT22;9178;51.120;6.192;2022-08-21T02:48:45;13.50;99.90
18103;DHT22;9178;51.120;6.192;2022-08-21T02:51:14;13.40;99.90
18103;DHT22;9178;51.120;6.192;2022-08-21T02:53:43;13.40;99.90
18103;DHT22;9178;51.120;6.192;2022-08-21T02:56:14;13.40;99.90
18103;DHT22;9178;51.120;6.192;2022-08-21T02:58:43;13.40;99.90
18103;DHT22;9178;51.120;6.192;2022-08-21T03:01:11;13.30;99.90
18103;DHT22;9178;51.120;6.192;2022-08-21T03:03:42;13.30;99.90
18103;DHT22;9178;51.120;6.192;2022-08-21T03:06:11;13.30;99.90
18103;DHT22;9178;51.120;6.192;2022-08-21T03:08:38;13.30;99.90
18103;DHT22;9178;51.120;6.192;2022-08-21T03:11:06;13.30;99.90
18103;DHT22;9178;51.120;6.192;2022-08-21T03:13:32;13.30;99.90
18103;DHT22;9178;51.120;6.192;2022-08-21T03:15:59;13.20;99.90
18103;DHT22;9178;51.120;6.192;2022-08-21T03:18:26;13.30;99.90
18103;DHT22;9178;51.120;6.192;2022-08-21T03:20:55;13.30;99.90
18103;DHT22;9178;51.120;6.192;2022-08-21T03:23:21;13.20;99.90
18103;DHT22;9178;51.120;6.192;2022-08-21T03:25:49;13.30;99.90
18103;DHT22;9178;51.120;6.192;2022-08-21T03:28:20;13.20;99.90
18103;DHT22;9178;51.120;6.192;2022-08-21T03:30:50;13.20;99.90
18103;DHT22;9178;51.120;6.192;2022-08-21T03:33:18;13.20;99.90
18103;DHT22;9178;51.120;6.192;2022-08-21T03:35:48;13.20;99.90
18103;DHT22;9178;51.120;6.192;2022-08-21T03:38:18;13.10;99.90
18103;DHT22;9178;51.120;6.192;2022-08-21T03:40:45;13.10;99.90
18103;DHT22;9178;51.120;6.192;2022-08-21T03:43:11;13.00;99.90
18103;DHT22;9178;51.120;6.192;2022-08-21T03:45:39;13.00;99.90
18103;DHT22;9178;51.120;6.192;2022-08-21T03:48:07;13.00;99.90
18103;DHT22;9178;51.120;6.192;2022-08-21T03:50:37;13.10;99.90
18103;DHT22;9178;51.120;6.192;2022-08-21T03:53:05;13.10;99.90
18103;DHT22;9178;51.120;6.192;2022-08-21T03:55:33;13.10;99.90
18103;DHT22;9178;51.120;6.192;2022-08-21T03:58:00;13.10;99.90
18103;DHT22;9178;51.120;6.192;2022-08-21T04:00:27;13.00;99.90
18103;DHT22;9178;51.120;6.192;2022-08-21T04:02:54;13.00;99.90
18103;DHT22;9178;51.120;6.192;2022-08-21T04:05:21;13.00;99.90
18103;DHT22;9178;51.120;6.192;2022-08-21T04:07:55;13.00;99.90
18103;DHT22;9178;51.120;6.192;2022-08-21T04:10:23;13.00;99.90
18103;DHT22;9178;51.120;6.192;2022-08-21T04:12:52;13.00;99.90
18103;DHT22;9178;51.120;6.192;2022-08-21T04:15:19;13.00;99.90
18103;DHT22;9178;51.120;6.192;2022-08-21T04:17:46;13.00;99.90
18103;DHT22;9178;51.120;6.192;2022-08-21T04:20:13;12.90;99.90
18103;DHT22;9178;51.120;6.192;2022-08-21T04:22:40;13.00;99.90
18103;DHT22;9178;51.120;6.192;2022-08-21T04:25:08;12.90;99.90
18103;DHT22;9178;51.120;6.192;2022-08-21T04:27:34;12.90;99.90
18103;DHT22;9178;51.120;6.192;2022-08-21T04:30:03;12.90;99.90
18103;DHT22;9178;51.120;6.192;2022-08-21T04:32:30;12.90;99.90
18103;DHT22;9178;51.120;6.192;2022-08-21T04:35:01;12.90;99.90
18103;DHT22;9178;51.120;6.192;2022-08-21T04:37:29;12.80;99.90
18103;DHT22;9178;51.120;6.192;2022-08-21T04:39:56;12.80;99.90
18103;DHT22;9178;51.120;6.192;2022-08-21T04:42:23;12.90;99.90
18103;DHT22;9178;51.120;6.192;2022-08-21T04:44:51;12.80;99.90
18103;DHT22;9178;51.120;6.192;2022-08-21T04:47:19;12.80;99.90
18103;DHT22;9178;51.120;6.192;2022-08-21T04:49:46;12.80;99.90
18103;DHT22;9178;51.120;6.192;2022-08-21T04:52:15;12.80;99.90
18103;DHT22;9178;51.120;6.192;2022-08-21T04:54:44;12.80;99.90
18103;DHT22;9178;51.120;6.192;2022-08-21T04:57:12;12.90;99.90
18103;DHT22;9178;51.120;6.192;2022-08-21T04:59:44;12.80;99.90
18103;DHT22;9178;51.120;6.192;2022-08-21T05:02:13;12.80;99.90
18103;DHT22;9178;51.120;6.192;2022-08-21T05:04:46;12.80;99.90
18103;DHT22;9178;51.120;6.192;2022-08-21T05:07:17;12.80;99.90
18103;DHT22;9178;51.120;6.192;2022-08-21T05:09:45;12.80;99.90
18103;DHT22;9178;51.120;6.192;2022-08-21T05:12:12;12.80;99.90
18103;DHT22;9178;51.120;6.192;2022-08-21T05:14:39;12.80;99.90
18103;DHT22;9178;51.120;6.192;2022-08-21T05:17:07;12.80;99.90
18103;DHT22;9178;51.120;6.192;2022-08-21T05:19:35;12.90;99.90
18103;DHT22;9178;51.120;6.192;2022-08-21T05:22:03;12.90;99.90
18103;DHT22;9178;51.120;6.192;2022-08-21T05:24:30;12.90;99.90
18103;DHT22;9178;51.120;6.192;2022-08-21T05:26:57;12.90;99.90
18103;DHT22;9178;51.120;6.192;2022-08-21T05:29:24;13.00;99.90
18103;DHT22;9178;51.120;6.192;2022-08-21T05:31:51;13.00;99.90
18103;DHT22;9178;51.120;6.192;2022-08-21T05:34:20;13.00;99.90
18103;DHT22;9178;51.120;6.192;2022-08-21T05:36:47;13.00;99.90
18103;DHT22;9178;51.120;6.192;2022-08-21T05:39:16;13.00;99.90
18103;DHT22;9178;51.120;6.192;2022-08-21T05:41:43;13.10;99.90
18103;DHT22;9178;51.120;6.192;2022-08-21T05:44:09;13.10;99.90
18103;DHT22;9178;51.120;6.192;2022-08-21T05:46:36;13.10;99.90
18103;DHT22;9178;51.120;6.192;2022-08-21T05:49:03;13.20;99.90
18103;DHT22;9178;51.120;6.192;2022-08-21T05:51:30;13.20;99.90
18103;DHT22;9178;51.120;6.192;2022-08-21T05:53:57;13.30;99.90
18103;DHT22;9178;51.120;6.192;2022-08-21T05:56:25;13.30;99.90
18103;DHT22;9178;51.120;6.192;2022-08-21T05:58:52;13.30;99.90
18103;DHT22;9178;51.120;6.192;2022-08-21T06:01:19;13.40;99.90
18103;DHT22;9178;51.120;6.192;2022-08-21T06:03:45;13.40;99.90
18103;DHT22;9178;51.120;6.192;2022-08-21T06:06:12;13.50;99.90
18103;DHT22;9178;51.120;6.192;2022-08-21T06:08:39;13.50;99.90
18103;DHT22;9178;51.120;6.192;2022-08-21T06:11:07;13.60;99.90
18103;DHT22;9178;51.120;6.192;2022-08-21T06:13:35;13.60;99.90
18103;DHT22;9178;51.120;6.192;2022-08-21T06:16:05;13.70;99.90
18103;DHT22;9178;51.120;6.192;2022-08-21T06:18:33;13.70;99.90
18103;DHT22;9178;51.120;6.192;2022-08-21T06:20:59;13.80;99.90
18103;DHT22;9178;51.120;6.192;2022-08-21T06:23:26;13.80;99.90
18103;DHT22;9178;51.120;6.192;2022-08-21T06:25:53;13.90;99.90
18103;DHT22;9178;51.120;6.192;2022-08-21T06:28:20;13.90;99.90
18103;DHT22;9178;51.120;6.192;2022-08-21T06:30:48;14.00;99.90
18103;DHT22;9178;51.120;6.192;2022-08-21T06:33:15;14.00;99.90
18103;DHT22;9178;51.120;6.192;2022-08-21T06:35:42;14.10;99.90
18103;DHT22;9178;51.120;6.192;2022-08-21T06:38:09;14.20;99.90
18103;DHT22;9178;51.120;6.192;2022-08-21T06:40:36;14.30;99.90
18103;DHT22;9178;51.120;6.192;2022-08-21T06:43:08;14.40;99.90
18103;DHT22;9178;51.120;6.192;2022-08-21T06:45:35;14.50;99.90
18103;DHT22;9178;51.120;6.192;2022-08-21T06:48:04;14.50;99.90
18103;DHT22;9178;51.120;6.192;2022-08-21T06:50:33;14.60;99.90
18103;DHT22;9178;51.120;6.192;2022-08-21T06:53:02;14.70;99.90
18103;DHT22;9178;51.120;6.192;2022-08-21T06:55:29;14.80;99.90
18103;DHT22;9178;51.120;6.192;2022-08-21T06:57:56;14.90;99.90
18103;DHT22;9178;51.120;6.192;2022-08-21T07:00:23;15.00;99.90
18103;DHT22;9178;51.120;6.192;2022-08-21T07:02:50;15.10;99.90
18103;DHT22;9178;51.120;6.192;2022-08-21T07:05:18;15.20;99.90
18103;DHT22;9178;51.120;6.192;2022-08-21T07:07:45;15.30;99.90
18103;DHT22;9178;51.120;6.192;2022-08-21T07:10:13;15.30;99.90
18103;DHT22;9178;51.120;6.192;2022-08-21T07:12:40;15.40;99.90
18103;DHT22;9178;51.120;6.192;2022-08-21T07:15:08;15.40;99.90
18103;DHT22;9178;51.120;6.192;2022-08-21T07:17:35;15.50;99.90
18103;DHT22;9178;51.120;6.192;2022-08-21T07:20:02;15.60;99.90
18103;DHT22;9178;51.120;6.192;2022-08-21T07:22:30;15.80;99.90
18103;DHT22;9178;51.120;6.192;2022-08-21T07:24:57;16.20;99.90
18103;DHT22;9178;51.120;6.192;2022-08-21T07:27:24;16.80;99.90
18103;DHT22;9178;51.120;6.192;2022-08-21T07:30:00;17.40;99.90
18103;DHT22;9178;51.120;6.192;2022-08-21T07:32:27;17.80;99.90
18103;DHT22;9178;51.120;6.192;2022-08-21T07:35:00;18.00;99.90
18103;DHT22;9178;51.120;6.192;2022-08-21T07:37:36;18.30;99.90
18103;DHT22;9178;51.120;6.192;2022-08-21T07:40:04;18.60;99.90
18103;DHT22;9178;51.120;6.192;2022-08-21T07:42:32;18.90;99.90
18103;DHT22;9178;51.120;6.192;2022-08-21T07:44:59;19.10;99.90
18103;DHT22;9178;51.120;6.192;2022-08-21T07:47:25;19.40;99.90
18103;DHT22;9178;51.120;6.192;2022-08-21T07:49:52;19.70;99.90
18103;DHT22;9178;51.120;6.192;2022-08-21T07:52:19;19.80;99.90
18103;DHT22;9178;51.120;6.192;2022-08-21T07:54:47;20.10;99.90
18103;DHT22;9178;51.120;6.192;2022-08-21T07:57:14;20.30;99.90
18103;DHT22;9178;51.120;6.192;2022-08-21T07:59:41;20.40;99.90
18103;DHT22;9178;51.120;6.192;2022-08-21T08:02:20;20.60;99.90
18103;DHT22;9178;51.120;6.192;2022-08-21T08:04:47;20.60;99.90
18103;DHT22;9178;51.120;6.192;2022-08-21T08:07:14;20.50;99.90
18103;DHT22;9178;51.120;6.192;2022-08-21T08:09:41;20.50;99.90
18103;DHT22;9178;51.120;6.192;2022-08-21T08:12:09;20.50;99.90
18103;DHT22;9178;51.120;6.192;2022-08-21T08:14:36;20.50;99.90
18103;DHT22;9178;51.120;6.192;2022-08-21T08:17:03;20.60;99.90
18103;DHT22;9178;51.120;6.192;2022-08-21T08:19:29;20.70;99.90
18103;DHT22;9178;51.120;6.192;2022-08-21T08:21:56;20.80;99.90
18103;DHT22;9178;51.120;6.192;2022-08-21T08:24:23;20.90;99.90
18103;DHT22;9178;51.120;6.192;2022-08-21T08:26:50;21.00;99.90
18103;DHT22;9178;51.120;6.192;2022-08-21T08:29:20;21.20;99.90
18103;DHT22;9178;51.120;6.192;2022-08-21T08:31:47;21.30;99.90
18103;DHT22;9178;51.120;6.192;2022-08-21T08:34:14;21.30;99.90
18103;DHT22;9178;51.120;6.192;2022-08-21T08:36:41;21.10;99.90
18103;DHT22;9178;51.120;6.192;2022-08-21T08:39:08;20.90;99.90
18103;DHT22;9178;51.120;6.192;2022-08-21T08:41:36;20.90;99.90
18103;DHT22;9178;51.120;6.192;2022-08-21T08:44:05;20.80;99.90
18103;DHT22;9178;51.120;6.192;2022-08-21T08:46:38;20.60;99.90
18103;DHT22;9178;51.120;6.192;2022-08-21T08:49:09;20.50;99.90
18103;DHT22;9178;51.120;6.192;2022-08-21T08:51:43;20.50;99.90
18103;DHT22;9178;51.120;6.192;2022-08-21T08:54:16;20.50;99.90
18103;DHT22;9178;51.120;6.192;2022-08-21T08:56:44;20.60;99.90
18103;DHT22;9178;51.120;6.192;2022-08-21T08:59:15;20.60;99.90
18103;DHT22;9178;51.120;6.192;2022-08-21T09:01:45;20.70;99.90
18103;DHT22;9178;51.120;6.192;2022-08-21T09:04:12;20.80;99.90
18103;DHT22;9178;51.120;6.192;2022-08-21T09:06:52;20.80;99.90
18103;DHT22;9178;51.120;6.192;2022-08-21T09:09:29;20.80;99.90
18103;DHT22;9178;51.120;6.192;2022-08-21T09:12:02;20.80;99.90
18103;DHT22;9178;51.120;6.192;2022-08-21T09:14:46;20.80;99.90
18103;DHT22;9178;51.120;6.192;2022-08-21T09:17:25;20.70;99.90
18103;DHT22;9178;51.120;6.192;2022-08-21T09:20:03;20.70;99.90
18103;DHT22;9178;51.120;6.192;2022-08-21T09:22:39;20.80;99.90
18103;DHT22;9178;51.120;6.192;2022-08-21T09:25:17;20.70;99.90
18103;DHT22;9178;51.120;6.192;2022-08-21T09:27:46;20.80;99.90
18103;DHT22;9178;51.120;6.192;2022-08-21T09:30:14;20.80;99.90
18103;DHT22;9178;51.120;6.192;2022-08-21T09:32:45;20.80;99.90
18103;DHT22;9178;51.120;6.192;2022-08-21T09:35:17;20.90;99.90
18103;DHT22;9178;51.120;6.192;2022-08-21T09:37:48;20.80;99.90
18103;DHT22;9178;51.120;6.192;2022-08-21T09:40:38;20.90;99.90
18103;DHT22;9178;51.120;6.192;2022-08-21T09:43:07;21.00;99.90
18103;DHT22;9178;51.120;6.192;2022-08-21T09:45:43;21.00;99.90
18103;DHT22;9178;51.120;6.192;2022-08-21T09:48:14;21.10;99.90
18103;DHT22;9178;51.120;6.192;2022-08-21T09:50:51;21.20;99.90
18103;DHT22;9178;51.120;6.192;2022-08-21T09:53:21;21.20;99.90
18103;DHT22;9178;51.120;6.192;2022-08-21T09:55:51;21.20;99.90
18103;DHT22;9178;51.120;6.192;2022-08-21T09:58:43;21.30;99.90
18103;DHT22;9178;51.120;6.192;2022-08-21T10:01:14;21.30;99.90
18103;DHT22;9178;51.120;6.192;2022-08-21T10:03:43;21.40;99.90
18103;DHT22;9178;51.120;6.192;2022-08-21T10:06:10;21.50;99.90
18103;DHT22;9178;51.120;6.192;2022-08-21T10:08:47;21.60;99.90
18103;DHT22;9178;51.120;6.192;2022-08-21T10:11:16;21.70;99.90
18103;DHT22;9178;51.120;6.192;2022-08-21T10:13:49;21.80;99.90
18103;DHT22;9178;51.120;6.192;2022-08-21T10:16:29;21.90;99.90
18103;DHT22;9178;51.120;6.192;2022-08-21T10:19:12;22.00;99.90
18103;DHT22;9178;51.120;6.192;2022-08-21T10:21:46;22.30;99.90
18103;DHT22;9178;51.120;6.192;2022-08-21T10:24:28;22.50;99.90
18103;DHT22;9178;51.120;6.192;2022-08-21T10:27:01;22.80;99.90
18103;DHT22;9178;51.120;6.192;2022-08-21T10:29:41;23.10;99.90
18103;DHT22;9178;51.120;6.192;2022-08-21T10:32:21;23.60;99.90
18103;DHT22;9178;51.120;6.192;2022-08-21T10:35:00;24.10;99.90
18103;DHT22;9178;51.120;6.192;2022-08-21T10:37:50;24.40;99.90
18103;DHT22;9178;51.120;6.192;2022-08-21T10:40:24;24.60;99.90
18103;DHT22;9178;51.120;6.192;2022-08-21T10:43:02;24.80;99.90
18103;DHT22;9178;51.120;6.192;2022-08-21T10:48:25;25.00;99.90
18103;DHT22;9178;51.120;6.192;2022-08-21T10:50:59;25.20;99.90
18103;DHT22;9178;51.120;6.192;2022-08-21T10:53:37;25.40;99.90
18103;DHT22;9178;51.120;6.192;2022-08-21T10:56:14;25.70;99.90
18103;DHT22;9178;51.120;6.192;2022-08-21T11:01:37;26.80;99.90
18103;DHT22;9178;51.120;6.192;2022-08-21T11:04:13;27.30;99.90
18103;DHT22;9178;51.120;6.192;2022-08-21T11:06:46;27.90;99.90
18103;DHT22;9178;51.120;6.192;2022-08-21T11:09:16;28.10;99.90
18103;DHT22;9178;51.120;6.192;2022-08-21T11:11:47;28.20;99.90
18103;DHT22;9178;51.120;6.192;2022-08-21T11:14:34;28.10;99.90
18103;DHT22;9178;51.120;6.192;2022-08-21T11:17:07;28.00;99.60
18103;DHT22;9178;51.120;6.192;2022-08-21T11:19:40;27.70;99.90
18103;DHT22;9178;51.120;6.192;2022-08-21T11:22:15;27.40;99.90
18103;DHT22;9178;51.120;6.192;2022-08-21T11:24:47;27.30;99.90
18103;DHT22;9178;51.120;6.192;2022-08-21T11:27:21;27.40;99.50
18103;DHT22;9178;51.120;6.192;2022-08-21T11:29:52;27.30;99.90
18103;DHT22;9178;51.120;6.192;2022-08-21T11:35:19;27.20;99.90
18103;DHT22;9178;51.120;6.192;2022-08-21T11:37:58;27.10;99.90
18103;DHT22;9178;51.120;6.192;2022-08-21T11:40:38;27.10;99.90
18103;DHT22;9178;51.120;6.192;2022-08-21T11:43:17;27.20;99.90
18103;DHT22;9178;51.120;6.192;2022-08-21T11:45:50;27.20;99.20
18103;DHT22;9178;51.120;6.192;2022-08-21T11:48:31;27.20;99.40
18103;DHT22;9178;51.120;6.192;2022-08-21T11:51:00;27.20;98.40
18103;DHT22;9178;51.120;6.192;2022-08-21T11:53:35;27.00;99.40
18103;DHT22;9178;51.120;6.192;2022-08-21T11:56:08;26.90;99.70
18103;DHT22;9178;51.120;6.192;2022-08-21T11:58:39;26.90;98.30
18103;DHT22;9178;51.120;6.192;2022-08-21T12:01:09;26.90;99.20
18103;DHT22;9178;51.120;6.192;2022-08-21T12:03:39;26.70;98.00
18103;DHT22;9178;51.120;6.192;2022-08-21T12:06:09;26.70;98.60
18103;DHT22;9178;51.120;6.192;2022-08-21T12:08:39;26.70;97.20
18103;DHT22;9178;51.120;6.192;2022-08-21T12:11:08;26.50;97.90
18103;DHT22;9178;51.120;6.192;2022-08-21T12:13:38;26.50;98.60
18103;DHT22;9178;51.120;6.192;2022-08-21T12:16:07;26.40;97.80
18103;DHT22;9178;51.120;6.192;2022-08-21T12:18:34;26.20;98.50
18103;DHT22;9178;51.120;6.192;2022-08-21T12:21:16;26.20;99.50
18103;DHT22;9178;51.120;6.192;2022-08-21T12:23:47;26.10;98.90
18103;DHT22;9178;51.120;6.192;2022-08-21T12:26:27;26.00;99.30
18103;DHT22;9178;51.120;6.192;2022-08-21T12:29:21;26.00;98.20
18103;DHT22;9178;51.120;6.192;2022-08-21T12:31:53;26.00;99.80
18103;DHT22;9178;51.120;6.192;2022-08-21T12:34:20;26.00;98.10
18103;DHT22;9178;51.120;6.192;2022-08-21T12:36:54;26.00;99.60
18103;DHT22;9178;51.120;6.192;2022-08-21T12:39:26;25.90;98.20
18103;DHT22;9178;51.120;6.192;2022-08-21T12:41:57;25.80;99.90
18103;DHT22;9178;51.120;6.192;2022-08-21T12:44:31;25.70;99.60
18103;DHT22;9178;51.120;6.192;2022-08-21T12:47:02;25.50;99.90
18103;DHT22;9178;51.120;6.192;2022-08-21T12:49:33;25.50;99.90
18103;DHT22;9178;51.120;6.192;2022-08-21T12:52:03;25.60;99.90
18103;DHT22;9178;51.120;6.192;2022-08-21T12:54:39;25.60;99.90
18103;DHT22;9178;51.120;6.192;2022-08-21T12:57:07;25.60;99.90
18103;DHT22;9178;51.120;6.192;2022-08-21T12:59:37;25.50;99.90
18103;DHT22;9178;51.120;6.192;2022-08-21T13:02:13;25.60;99.90
18103;DHT22;9178;51.120;6.192;2022-08-21T13:04:43;25.70;98.90
18103;DHT22;9178;51.120;6.192;2022-08-21T13:07:12;25.80;98.90
18103;DHT22;9178;51.120;6.192;2022-08-21T13:12:26;25.80;98.60
18103;DHT22;9178;51.120;6.192;2022-08-21T13:14:57;25.70;98.80
18103;DHT22;9178;51.120;6.192;2022-08-21T13:17:26;25.80;99.30
18103;DHT22;9178;51.120;6.192;2022-08-21T13:19:56;26.00;99.20
18103;DHT22;9178;51.120;6.192;2022-08-21T13:22:24;26.30;99.10
18103;DHT22;9178;51.120;6.192;2022-08-21T13:24:53;26.70;98.50
18103;DHT22;9178;51.120;6.192;2022-08-21T13:27:24;27.20;97.70
18103;DHT22;9178;51.120;6.192;2022-08-21T13:30:03;27.80;99.90
18103;DHT22;9178;51.120;6.192;2022-08-21T13:32:33;28.40;99.20
18103;DHT22;9178;51.120;6.192;2022-08-21T13:35:09;28.70;94.20
18103;DHT22;9178;51.120;6.192;2022-08-21T13:37:39;29.10;97.90
18103;DHT22;9178;51.120;6.192;2022-08-21T13:40:10;29.70;95.00
18103;DHT22;9178;51.120;6.192;2022-08-21T13:42:41;30.30;95.10
18103;DHT22;9178;51.120;6.192;2022-08-21T13:45:13;30.70;95.90
18103;DHT22;9178;51.120;6.192;2022-08-21T13:47:40;31.20;94.10
18103;DHT22;9178;51.120;6.192;2022-08-21T13:50:08;31.60;91.20
18103;DHT22;9178;51.120;6.192;2022-08-21T13:52:47;31.40;91.70
18103;DHT22;9178;51.120;6.192;2022-08-21T13:55:19;31.40;91.20
18103;DHT22;9178;51.120;6.192;2022-08-21T13:57:47;31.80;90.20
18103;DHT22;9178;51.120;6.192;2022-08-21T14:00:27;32.40;86.20
18103;DHT22;9178;51.120;6.192;2022-08-21T14:03:00;32.70;89.90
18103;DHT22;9178;51.120;6.192;2022-08-21T14:05:29;32.70;82.40
18103;DHT22;9178;51.120;6.192;2022-08-21T14:08:03;32.90;77.30
18103;DHT22;9178;51.120;6.192;2022-08-21T14:10:37;33.10;80.00
18103;DHT22;9178;51.120;6.192;2022-08-21T14:13:07;33.40;77.40
18103;DHT22;9178;51.120;6.192;2022-08-21T14:15:35;33.40;76.30
18103;DHT22;9178;51.120;6.192;2022-08-21T14:18:12;33.30;72.70
18103;DHT22;9178;51.120;6.192;2022-08-21T14:20:41;33.70;71.20
18103;DHT22;9178;51.120;6.192;2022-08-21T14:23:08;33.80;73.40
18103;DHT22;9178;51.120;6.192;2022-08-21T14:25:41;33.70;69.30
18103;DHT22;9178;51.120;6.192;2022-08-21T14:28:15;33.40;70.80
18103;DHT22;9178;51.120;6.192;2022-08-21T14:30:45;33.10;70.90
18103;DHT22;9178;51.120;6.192;2022-08-21T14:33:26;33.50;69.90
18103;DHT22;9178;51.120;6.192;2022-08-21T14:35:54;33.80;70.30
18103;DHT22;9178;51.120;6.192;2022-08-21T14:38:24;34.10;68.60
18103;DHT22;9178;51.120;6.192;2022-08-21T14:40:57;34.00;63.90
18103;DHT22;9178;51.120;6.192;2022-08-21T14:43:26;33.70;67.50
18103;DHT22;9178;51.120;6.192;2022-08-21T14:45:53;33.80;68.50
18103;DHT22;9178;51.120;6.192;2022-08-21T14:48:20;33.70;66.70
18103;DHT22;9178;51.120;6.192;2022-08-21T14:50:47;33.90;66.60
18103;DHT22;9178;51.120;6.192;2022-08-21T14:53:14;33.70;66.30
18103;DHT22;9178;51.120;6.192;2022-08-21T14:55:41;33.60;66.00
18103;DHT22;9178;51.120;6.192;2022-08-21T14:58:29;33.30;65.80
18103;DHT22;9178;51.120;6.192;2022-08-21T15:00:57;33.20;64.80
18103;DHT22;9178;51.120;6.192;2022-08-21T15:03:24;33.00;64.60
18103;DHT22;9178;51.120;6.192;2022-08-21T15:05:51;32.70;65.40
18103;DHT22;9178;51.120;6.192;2022-08-21T15:08:18;32.30;64.50
18103;DHT22;9178;51.120;6.192;2022-08-21T15:10:45;31.90;64.50
18103;DHT22;9178;51.120;6.192;2022-08-21T15:13:12;31.60;66.00
18103;DHT22;9178;51.120;6.192;2022-08-21T15:15:43;31.60;67.10
18103;DHT22;9178;51.120;6.192;2022-08-21T15:18:10;31.70;65.70
18103;DHT22;9178;51.120;6.192;2022-08-21T15:20:38;31.70;63.30
18103;DHT22;9178;51.120;6.192;2022-08-21T15:23:05;31.50;64.20
18103;DHT22;9178;51.120;6.192;2022-08-21T15:25:32;31.40;65.00
18103;DHT22;9178;51.120;6.192;2022-08-21T15:28:00;31.20;65.00
18103;DHT22;9178;51.120;6.192;2022-08-21T15:30:28;31.10;66.00
18103;DHT22;9178;51.120;6.192;2022-08-21T15:32:57;31.00;66.00
18103;DHT22;9178;51.120;6.192;2022-08-21T15:35:24;31.10;65.60
18103;DHT22;9178;51.120;6.192;2022-08-21T15:37:50;31.20;63.90
18103;DHT22;9178;51.120;6.192;2022-08-21T15:40:17;30.90;62.60
18103;DHT22;9178;51.120;6.192;2022-08-21T15:42:44;30.90;66.40
18103;DHT22;9178;51.120;6.192;2022-08-21T15:45:13;31.00;63.60
18103;DHT22;9178;51.120;6.192;2022-08-21T15:47:43;30.80;63.10
18103;DHT22;9178;51.120;6.192;2022-08-21T15:50:12;30.50;62.70
18103;DHT22;9178;51.120;6.192;2022-08-21T15:52:39;30.30;67.60
18103;DHT22;9178;51.120;6.192;2022-08-21T15:55:07;29.80;65.30
18103;DHT22;9178;51.120;6.192;2022-08-21T15:57:34;29.10;63.20
18103;DHT22;9178;51.120;6.192;2022-08-21T16:00:05;28.70;67.10
18103;DHT22;9178;51.120;6.192;2022-08-21T16:02:36;28.50;68.70
18103;DHT22;9178;51.120;6.192;2022-08-21T16:05:04;28.50;69.10
18103;DHT22;9178;51.120;6.192;2022-08-21T16:07:32;28.40;67.30
18103;DHT22;9178;51.120;6.192;2022-08-21T16:09:59;28.20;71.40
18103;DHT22;9178;51.120;6.192;2022-08-21T16:12:31;28.00;67.90
18103;DHT22;9178;51.120;6.192;2022-08-21T16:14:59;27.70;71.80